createdAt,value
2018-06-10T00:00:22.659Z,27.99
2018-06-10T00:01:22.542Z,28.03
2018-06-10T00:02:22.537Z,27.98
2018-06-10T00:03:22.511Z,27.93
2018-06-10T00:04:22.476Z,27.89
2018-06-10T00:05:22.451Z,27.89
2018-06-10T00:07:22.393Z,27.86
2018-06-10T00:08:22.408Z,27.86
2018-06-10T00:09:22.351Z,27.75
2018-06-10T00:10:22.345Z,27.76
2018-06-10T00:11:22.310Z,27.76
2018-06-10T00:12:22.318Z,27.79
2018-06-10T00:13:22.245Z,27.80
2018-06-10T00:14:22.239Z,27.71
2018-06-10T00:15:22.235Z,27.72
2018-06-10T00:16:22.183Z,27.79
2018-06-10T00:17:22.205Z,27.74
2018-06-10T00:18:22.143Z,27.76
2018-06-10T00:19:22.160Z,27.66
2018-06-10T00:20:22.126Z,27.76
2018-06-10T00:21:22.070Z,27.75
2018-06-10T00:22:22.048Z,27.72
2018-06-10T00:23:22.016Z,27.76
2018-06-10T00:24:22.008Z,27.80
2018-06-10T00:25:21.981Z,27.76
2018-06-10T00:26:21.952Z,27.74
2018-06-10T00:27:22.030Z,27.81
2018-06-10T00:28:21.894Z,27.76
2018-06-10T00:29:21.866Z,27.81
2018-06-10T00:30:21.858Z,27.75
2018-06-10T00:31:21.864Z,27.72
2018-06-10T00:32:21.911Z,27.72
2018-06-10T00:33:21.768Z,27.74
2018-06-10T00:34:21.789Z,27.89
2018-06-10T00:35:21.746Z,27.80
2018-06-10T00:36:21.918Z,27.75
2018-06-10T00:37:21.734Z,27.74
2018-06-10T00:38:21.660Z,27.76
2018-06-10T00:39:21.633Z,27.79
2018-06-10T00:40:21.629Z,27.76
2018-06-10T00:41:21.586Z,27.71
2018-06-10T00:42:21.599Z,27.68
2018-06-10T00:43:21.563Z,27.71
2018-06-10T00:44:21.505Z,27.62
2018-06-10T00:45:21.488Z,27.64
2018-06-10T00:46:21.999Z,27.64
2018-06-10T00:47:21.463Z,27.55
2018-06-10T00:48:21.521Z,27.62
2018-06-10T00:49:21.379Z,27.65
2018-06-10T00:50:21.384Z,27.59
2018-06-10T00:51:21.341Z,27.64
2018-06-10T00:52:21.344Z,27.64
2018-06-10T00:53:21.299Z,27.53
2018-06-10T00:54:21.275Z,27.65
2018-06-10T00:55:21.242Z,27.48
2018-06-10T00:56:21.219Z,27.46
2018-06-10T00:57:21.193Z,27.53
2018-06-10T00:58:21.169Z,27.55
2018-06-10T00:59:21.199Z,27.53
2018-06-10T01:00:21.113Z,27.43
2018-06-10T01:01:21.111Z,27.55
2018-06-10T01:02:21.064Z,27.49
2018-06-10T01:03:21.076Z,27.36
2018-06-10T01:04:21.125Z,27.46
2018-06-10T01:05:21.046Z,27.53
2018-06-10T01:06:20.991Z,27.43
2018-06-10T01:07:20.956Z,27.41
2018-06-10T01:08:20.949Z,27.46
2018-06-10T01:09:20.954Z,27.45
2018-06-10T01:10:20.884Z,27.38
2018-06-10T01:11:20.853Z,27.37
2018-06-10T01:12:20.831Z,27.37
2018-06-10T01:13:20.842Z,27.37
2018-06-10T01:14:20.877Z,27.33
2018-06-10T01:15:20.766Z,27.28
2018-06-10T01:16:20.815Z,27.28
2018-06-10T01:17:20.707Z,27.33
2018-06-10T01:18:20.693Z,27.23
2018-06-10T01:19:20.716Z,27.37
2018-06-10T01:20:20.628Z,27.36
2018-06-10T01:21:20.618Z,27.33
2018-06-10T01:22:20.581Z,27.34
2018-06-10T01:23:20.566Z,27.38
2018-06-10T01:24:20.651Z,27.37
2018-06-10T01:25:20.513Z,27.33
2018-06-10T01:26:20.501Z,27.33
2018-06-10T01:27:20.575Z,27.30
2018-06-10T01:28:20.992Z,27.26
2018-06-10T01:29:20.411Z,27.23
2018-06-10T01:30:20.508Z,27.31
2018-06-10T01:31:20.361Z,27.31
2018-06-10T01:32:20.364Z,27.31
2018-06-10T01:33:20.328Z,27.24
2018-06-10T01:34:20.307Z,27.31
2018-06-10T01:35:20.309Z,27.23
2018-06-10T01:36:20.352Z,27.23
2018-06-10T01:37:20.250Z,27.19
2018-06-10T01:38:20.194Z,27.23
2018-06-10T01:39:20.220Z,27.13
2018-06-10T01:40:20.159Z,27.18
2018-06-10T01:41:20.229Z,27.18
2018-06-10T01:42:20.611Z,27.16
2018-06-10T01:43:20.074Z,27.16
2018-06-10T01:44:20.053Z,27.15
2018-06-10T01:45:20.019Z,27.18
2018-06-10T01:46:20.157Z,27.23
2018-06-10T01:47:19.981Z,27.19
2018-06-10T01:48:19.955Z,27.13
2018-06-10T01:49:20.036Z,27.13
2018-06-10T01:50:19.896Z,27.08
2018-06-10T01:51:19.921Z,27.11
2018-06-10T01:52:19.946Z,27.09
2018-06-10T01:53:19.868Z,27.11
2018-06-10T01:54:19.797Z,27.05
2018-06-10T01:55:19.838Z,27.05
2018-06-10T01:56:19.849Z,26.97
2018-06-10T01:57:19.736Z,27.00
2018-06-10T01:58:19.762Z,27.09
2018-06-10T01:59:19.693Z,27.06
2018-06-10T02:00:19.682Z,27.09
2018-06-10T02:01:20.258Z,27.11
2018-06-10T02:02:19.615Z,27.05
2018-06-10T02:03:19.595Z,27.04
2018-06-10T02:04:20.102Z,27.11
2018-06-10T02:05:19.521Z,26.99
2018-06-10T02:06:20.043Z,27.04
2018-06-10T02:07:19.570Z,27.09
2018-06-10T02:08:19.467Z,26.96
2018-06-10T02:09:19.983Z,27.04
2018-06-10T02:10:19.409Z,26.99
2018-06-10T02:11:19.394Z,27.04
2018-06-10T02:12:19.888Z,27.05
2018-06-10T02:13:19.445Z,27.00
2018-06-10T02:14:19.384Z,27.00
2018-06-10T02:15:19.304Z,26.90
2018-06-10T02:16:19.256Z,26.99
2018-06-10T02:17:19.241Z,26.91
2018-06-10T02:18:19.319Z,27.05
2018-06-10T02:19:19.186Z,27.04
2018-06-10T02:20:19.151Z,26.93
2018-06-10T02:21:19.148Z,26.97
2018-06-10T02:22:19.110Z,26.93
2018-06-10T02:23:19.179Z,27.00
2018-06-10T02:24:19.060Z,27.04
2018-06-10T02:25:19.040Z,26.91
2018-06-10T02:26:19.021Z,26.99
2018-06-10T02:27:18.990Z,27.01
2018-06-10T02:28:19.603Z,27.06
2018-06-10T02:29:18.948Z,27.09
2018-06-10T02:30:18.983Z,27.00
2018-06-10T02:31:18.919Z,27.05
2018-06-10T02:32:19.591Z,27.06
2018-06-10T02:33:18.959Z,26.97
2018-06-10T02:34:18.823Z,27.05
2018-06-10T02:35:18.777Z,26.99
2018-06-10T02:36:18.769Z,27.01
2018-06-10T02:37:18.750Z,26.94
2018-06-10T02:38:18.825Z,27.04
2018-06-10T02:39:18.680Z,27.04
2018-06-10T02:40:18.672Z,27.08
2018-06-10T02:41:19.302Z,27.04
2018-06-10T02:42:18.602Z,27.06
2018-06-10T02:43:18.651Z,27.06
2018-06-10T02:44:18.606Z,27.08
2018-06-10T02:45:18.553Z,27.09
2018-06-10T02:46:18.522Z,27.09
2018-06-10T02:47:18.506Z,27.15
2018-06-10T02:48:19.001Z,27.13
2018-06-10T02:49:18.479Z,27.13
2018-06-10T02:50:18.433Z,27.12
2018-06-10T02:51:18.409Z,27.09
2018-06-10T02:52:18.367Z,27.15
2018-06-10T02:53:18.403Z,27.05
2018-06-10T02:54:18.360Z,27.15
2018-06-10T02:55:18.297Z,27.21
2018-06-10T02:56:18.304Z,27.11
2018-06-10T02:57:18.257Z,27.12
2018-06-10T02:58:18.201Z,27.13
2018-06-10T02:59:18.247Z,27.06
2018-06-10T03:00:18.166Z,27.08
2018-06-10T03:01:18.659Z,27.09
2018-06-10T03:02:18.157Z,27.11
2018-06-10T03:03:18.095Z,27.09
2018-06-10T03:04:18.736Z,27.05
2018-06-10T03:05:18.057Z,27.05
2018-06-10T03:06:18.012Z,27.04
2018-06-10T03:07:18.070Z,27.06
2018-06-10T03:08:17.983Z,27.04
2018-06-10T03:09:18.059Z,27.05
2018-06-10T03:10:18.441Z,27.09
2018-06-10T03:11:17.890Z,27.09
2018-06-10T03:12:17.882Z,27.12
2018-06-10T03:13:17.842Z,27.11
2018-06-10T03:14:18.449Z,27.13
2018-06-10T03:15:18.348Z,27.12
2018-06-10T03:16:17.758Z,27.13
2018-06-10T03:17:17.732Z,27.15
2018-06-10T03:18:17.731Z,27.15
2018-06-10T03:19:17.734Z,27.19
2018-06-10T03:20:17.759Z,27.19
2018-06-10T03:21:18.154Z,27.18
2018-06-10T03:22:17.632Z,27.23
2018-06-10T03:23:17.592Z,27.27
2018-06-10T03:24:17.725Z,27.28
2018-06-10T03:25:17.684Z,27.31
2018-06-10T03:26:17.613Z,27.28
2018-06-10T03:27:17.497Z,27.34
2018-06-10T03:28:18.023Z,27.27
2018-06-10T03:29:17.454Z,27.26
2018-06-10T03:30:17.421Z,27.16
2018-06-10T03:31:17.507Z,27.11
2018-06-10T03:32:17.387Z,27.08
2018-06-10T03:33:17.378Z,27.21
2018-06-10T03:34:17.359Z,27.19
2018-06-10T03:35:17.310Z,27.16
2018-06-10T03:36:17.862Z,27.27
2018-06-10T03:37:17.304Z,27.15
2018-06-10T03:38:17.227Z,27.09
2018-06-10T03:39:17.208Z,26.97
2018-06-10T03:40:17.239Z,26.93
2018-06-10T03:41:17.155Z,26.90
2018-06-10T03:42:17.184Z,26.99
2018-06-10T03:43:17.107Z,27.00
2018-06-10T03:44:17.059Z,26.89
2018-06-10T03:45:17.039Z,26.94
2018-06-10T03:46:17.025Z,26.94
2018-06-10T03:47:17.139Z,26.89
2018-06-10T03:48:16.987Z,26.93
2018-06-10T03:49:16.940Z,26.99
2018-06-10T03:50:16.920Z,27.01
2018-06-10T03:51:16.910Z,27.04
2018-06-10T03:52:16.920Z,27.01
2018-06-10T03:53:16.850Z,26.87
2018-06-10T03:54:16.882Z,26.97
2018-06-10T03:55:16.809Z,26.90
2018-06-10T03:56:16.771Z,26.96
2018-06-10T03:57:16.812Z,26.86
2018-06-10T03:58:16.715Z,26.78
2018-06-10T03:59:16.694Z,26.79
2018-06-10T04:00:16.670Z,26.89
2018-06-10T04:01:16.663Z,26.89
2018-06-10T04:02:16.608Z,26.79
2018-06-10T04:03:16.643Z,26.82
2018-06-10T04:04:16.574Z,26.97
2018-06-10T04:05:16.537Z,26.90
2018-06-10T04:06:16.520Z,26.93
2018-06-10T04:07:16.500Z,26.93
2018-06-10T04:08:16.530Z,26.99
2018-06-10T04:09:16.452Z,26.97
2018-06-10T04:10:16.424Z,26.91
2018-06-10T04:11:16.376Z,26.93
2018-06-10T04:12:16.371Z,26.90
2018-06-10T04:13:16.400Z,26.94
2018-06-10T04:14:16.310Z,26.91
2018-06-10T04:15:16.297Z,26.78
2018-06-10T04:16:16.261Z,26.89
2018-06-10T04:17:16.238Z,26.79
2018-06-10T04:18:16.333Z,26.78
2018-06-10T04:19:16.212Z,26.78
2018-06-10T04:20:16.185Z,26.84
2018-06-10T04:21:16.141Z,26.96
2018-06-10T04:22:16.118Z,26.96
2018-06-10T04:23:16.197Z,26.87
2018-06-10T04:24:16.066Z,26.91
2018-06-10T04:25:16.038Z,26.90
2018-06-10T04:26:16.035Z,26.93
2018-06-10T04:27:16.000Z,26.94
2018-06-10T04:28:16.073Z,26.93
2018-06-10T04:29:15.938Z,26.96
2018-06-10T04:30:15.925Z,26.90
2018-06-10T04:31:16.430Z,26.99
2018-06-10T04:32:15.852Z,27.01
2018-06-10T04:33:15.883Z,27.00
2018-06-10T04:34:15.878Z,27.04
2018-06-10T04:35:15.801Z,27.00
2018-06-10T04:36:15.762Z,27.06
2018-06-10T04:37:15.772Z,27.00
2018-06-10T04:38:15.704Z,27.00
2018-06-10T04:39:15.758Z,27.08
2018-06-10T04:40:15.709Z,27.04
2018-06-10T04:41:15.657Z,27.01
2018-06-10T04:42:15.638Z,27.09
2018-06-10T04:43:15.585Z,27.08
2018-06-10T04:44:15.630Z,26.93
2018-06-10T04:45:15.545Z,26.94
2018-06-10T04:46:15.513Z,26.97
2018-06-10T04:47:15.539Z,26.89
2018-06-10T04:48:15.482Z,26.89
2018-06-10T04:49:15.438Z,26.89
2018-06-10T04:50:15.523Z,26.81
2018-06-10T04:51:15.395Z,26.89
2018-06-10T04:52:15.385Z,26.81
2018-06-10T04:53:15.328Z,26.81
2018-06-10T04:54:15.363Z,26.86
2018-06-10T04:55:15.285Z,26.74
2018-06-10T04:56:15.365Z,26.81
2018-06-10T04:57:15.234Z,26.71
2018-06-10T04:58:15.228Z,26.72
2018-06-10T04:59:15.185Z,26.75
2018-06-10T05:00:15.159Z,26.82
2018-06-10T05:01:15.257Z,26.76
2018-06-10T05:02:15.117Z,26.84
2018-06-10T05:03:15.097Z,26.86
2018-06-10T05:04:15.076Z,26.86
2018-06-10T05:05:15.069Z,26.90
2018-06-10T05:06:15.116Z,26.76
2018-06-10T05:07:15.007Z,26.76
2018-06-10T05:08:14.950Z,26.74
2018-06-10T05:09:14.959Z,26.86
2018-06-10T05:10:14.925Z,26.87
2018-06-10T05:11:14.933Z,26.75
2018-06-10T05:12:14.872Z,26.79
2018-06-10T05:13:14.849Z,26.79
2018-06-10T05:14:14.801Z,26.78
2018-06-10T05:15:14.790Z,26.89
2018-06-10T05:16:14.780Z,26.78
2018-06-10T05:17:14.740Z,26.87
2018-06-10T05:18:14.717Z,26.81
2018-06-10T05:19:14.684Z,26.75
2018-06-10T05:20:14.834Z,26.64
2018-06-10T05:21:14.643Z,26.59
2018-06-10T05:22:14.708Z,26.50
2018-06-10T05:23:14.593Z,26.52
2018-06-10T05:24:14.554Z,26.47
2018-06-10T05:25:14.538Z,26.50
2018-06-10T05:26:14.521Z,26.42
2018-06-10T05:27:14.581Z,26.42
2018-06-10T05:28:14.472Z,26.41
2018-06-10T05:29:14.459Z,26.24
2018-06-10T05:30:14.406Z,26.20
2018-06-10T05:31:14.403Z,26.11
2018-06-10T05:32:14.357Z,26.11
2018-06-10T05:33:14.327Z,26.12
2018-06-10T05:34:14.307Z,26.07
2018-06-10T05:35:14.279Z,26.07
2018-06-10T05:36:14.263Z,25.96
2018-06-10T05:37:14.243Z,26.00
2018-06-10T05:38:14.207Z,26.07
2018-06-10T05:39:14.219Z,26.09
2018-06-10T05:40:14.206Z,25.99
2018-06-10T05:41:14.134Z,26.11
2018-06-10T05:42:14.099Z,26.09
2018-06-10T05:43:14.179Z,26.06
2018-06-10T05:44:14.127Z,25.97
2018-06-10T05:45:14.020Z,25.99
2018-06-10T05:46:13.999Z,26.04
2018-06-10T05:47:13.996Z,26.00
2018-06-10T05:48:13.978Z,26.00
2018-06-10T05:49:13.970Z,25.94
2018-06-10T05:50:13.919Z,25.89
2018-06-10T05:51:13.924Z,26.04
2018-06-10T05:52:13.840Z,25.96
2018-06-10T05:53:13.822Z,25.88
2018-06-10T05:54:13.870Z,25.89
2018-06-10T05:55:13.771Z,25.79
2018-06-10T05:56:13.747Z,25.86
2018-06-10T05:57:13.722Z,25.78
2018-06-10T05:58:13.732Z,25.88
2018-06-10T05:59:13.662Z,25.78
2018-06-10T06:00:13.650Z,25.78
2018-06-10T06:01:13.645Z,25.69
2018-06-10T06:02:13.624Z,25.54
2018-06-10T06:03:13.581Z,25.56
2018-06-10T06:04:13.634Z,25.56
2018-06-10T06:05:13.516Z,25.64
2018-06-10T06:06:13.497Z,25.66
2018-06-10T06:07:13.468Z,25.67
2018-06-10T06:08:13.434Z,25.69
2018-06-10T06:09:13.448Z,25.67
2018-06-10T06:10:13.386Z,25.56
2018-06-10T06:11:13.377Z,25.64
2018-06-10T06:12:13.359Z,25.51
2018-06-10T06:13:13.311Z,25.49
2018-06-10T06:14:13.309Z,25.48
2018-06-10T06:15:13.313Z,25.59
2018-06-10T06:16:13.259Z,25.57
2018-06-10T06:17:13.232Z,25.56
2018-06-10T06:18:13.195Z,25.49
2018-06-10T06:19:13.157Z,25.56
2018-06-10T06:20:13.229Z,25.63
2018-06-10T06:21:13.109Z,25.56
2018-06-10T06:22:13.079Z,25.59
2018-06-10T06:23:13.065Z,25.54
2018-06-10T06:24:13.034Z,25.52
2018-06-10T06:25:13.027Z,25.57
2018-06-10T06:26:13.035Z,25.48
2018-06-10T06:27:12.972Z,25.57
2018-06-10T06:28:12.948Z,25.44
2018-06-10T06:29:12.917Z,25.56
2018-06-10T06:30:12.891Z,25.54
2018-06-10T06:31:12.851Z,25.44
2018-06-10T06:32:12.855Z,25.51
2018-06-10T06:33:12.868Z,25.52
2018-06-10T06:34:12.771Z,25.45
2018-06-10T06:35:12.760Z,25.37
2018-06-10T06:36:12.772Z,25.44
2018-06-10T06:37:12.719Z,25.49
2018-06-10T06:38:12.708Z,25.49
2018-06-10T06:39:12.641Z,25.52
2018-06-10T06:40:12.639Z,25.48
2018-06-10T06:41:12.703Z,25.52
2018-06-10T06:42:12.583Z,25.51
2018-06-10T06:43:12.543Z,25.48
2018-06-10T06:44:12.520Z,25.48
2018-06-10T06:45:12.511Z,25.49
2018-06-10T06:46:12.572Z,25.57
2018-06-10T06:47:12.470Z,25.45
2018-06-10T06:48:12.416Z,25.52
2018-06-10T06:49:12.401Z,25.44
2018-06-10T06:50:12.393Z,25.37
2018-06-10T06:51:12.353Z,25.39
2018-06-10T06:52:12.366Z,25.29
2018-06-10T06:53:12.286Z,25.34
2018-06-10T06:54:12.266Z,25.37
2018-06-10T06:55:12.236Z,25.30
2018-06-10T06:56:12.219Z,25.33
2018-06-10T06:57:12.193Z,25.45
2018-06-10T06:58:12.182Z,25.44
2018-06-10T06:59:12.153Z,25.37
2018-06-10T07:00:12.132Z,25.33
2018-06-10T07:01:12.103Z,25.44
2018-06-10T07:02:12.080Z,25.44
2018-06-10T07:03:12.079Z,25.42
2018-06-10T07:04:12.026Z,25.32
2018-06-10T07:05:11.985Z,25.47
2018-06-10T07:06:11.988Z,25.39
2018-06-10T07:07:11.919Z,25.39
2018-06-10T07:08:11.955Z,25.32
2018-06-10T07:09:11.878Z,25.37
2018-06-10T07:10:11.849Z,25.29
2018-06-10T07:11:11.830Z,25.29
2018-06-10T07:12:11.805Z,25.33
2018-06-10T07:13:11.907Z,25.26
2018-06-10T07:14:11.743Z,25.20
2018-06-10T07:15:11.719Z,25.26
2018-06-10T07:16:11.691Z,25.24
2018-06-10T07:17:11.672Z,25.23
2018-06-10T07:18:11.758Z,25.12
2018-06-10T07:19:11.612Z,25.26
2018-06-10T07:20:11.588Z,25.20
2018-06-10T07:21:11.589Z,25.22
2018-06-10T07:22:11.539Z,25.23
2018-06-10T07:23:11.561Z,25.20
2018-06-10T07:24:11.505Z,25.11
2018-06-10T07:25:11.452Z,25.19
2018-06-10T07:26:11.449Z,25.26
2018-06-10T07:27:11.428Z,25.26
2018-06-10T07:28:11.391Z,25.29
2018-06-10T07:29:11.476Z,25.34
2018-06-10T07:30:11.357Z,25.26
2018-06-10T07:31:11.317Z,25.32
2018-06-10T07:32:11.296Z,25.34
2018-06-10T07:33:11.260Z,25.39
2018-06-10T07:34:11.233Z,25.39
2018-06-10T07:35:11.255Z,25.39
2018-06-10T07:36:11.166Z,25.38
2018-06-10T07:37:11.265Z,25.30
2018-06-10T07:38:11.142Z,25.27
2018-06-10T07:39:11.104Z,25.34
2018-06-10T07:40:11.123Z,25.29
2018-06-10T07:41:11.050Z,25.29
2018-06-10T07:42:11.024Z,25.29
2018-06-10T07:43:10.986Z,25.26
2018-06-10T07:44:10.972Z,25.32
2018-06-10T07:45:11.053Z,25.27
2018-06-10T07:46:10.913Z,25.27
2018-06-10T07:47:10.893Z,25.30
2018-06-10T07:48:10.864Z,25.30
2018-06-10T07:49:10.827Z,25.26
2018-06-10T07:50:10.914Z,25.23
2018-06-10T07:51:10.797Z,25.23
2018-06-10T07:52:10.749Z,25.07
2018-06-10T07:53:10.729Z,25.09
2018-06-10T07:54:10.716Z,25.26
2018-06-10T07:55:10.787Z,25.14
2018-06-10T07:56:10.666Z,25.09
2018-06-10T07:57:10.633Z,25.11
2018-06-10T07:58:10.614Z,25.09
2018-06-10T07:59:10.583Z,25.08
2018-06-10T08:00:10.677Z,25.08
2018-06-10T08:01:10.523Z,25.08
2018-06-10T08:02:10.494Z,25.08
2018-06-10T08:03:10.481Z,25.09
2018-06-10T08:04:10.442Z,25.11
2018-06-10T08:05:10.434Z,25.14
2018-06-10T08:06:10.448Z,25.14
2018-06-10T08:07:10.378Z,25.23
2018-06-10T08:08:10.333Z,25.22
2018-06-10T08:09:10.326Z,25.24
2018-06-10T08:10:10.307Z,25.29
2018-06-10T08:11:10.269Z,25.23
2018-06-10T08:12:10.241Z,25.33
2018-06-10T08:13:10.210Z,25.23
2018-06-10T08:14:10.180Z,25.20
2018-06-10T08:15:10.159Z,25.11
2018-06-10T08:16:10.201Z,25.11
2018-06-10T08:17:10.105Z,25.09
2018-06-10T08:18:10.118Z,25.11
2018-06-10T08:19:10.099Z,25.12
2018-06-10T08:20:10.033Z,25.01
2018-06-10T08:21:10.024Z,25.02
2018-06-10T08:22:10.084Z,25.01
2018-06-10T08:23:09.951Z,25.01
2018-06-10T08:24:09.934Z,25.00
2018-06-10T08:25:09.900Z,24.96
2018-06-10T08:26:09.883Z,25.01
2018-06-10T08:27:09.956Z,25.01
2018-06-10T08:28:09.834Z,25.00
2018-06-10T08:29:09.791Z,25.02
2018-06-10T08:30:09.757Z,25.02
2018-06-10T08:31:09.761Z,25.01
2018-06-10T08:32:09.835Z,25.01
2018-06-10T08:33:09.684Z,25.02
2018-06-10T08:34:09.665Z,25.05
2018-06-10T08:35:09.628Z,25.00
2018-06-10T08:36:09.599Z,24.97
2018-06-10T08:37:09.686Z,24.96
2018-06-10T08:38:09.566Z,25.09
2018-06-10T08:39:09.519Z,25.08
2018-06-10T08:40:09.491Z,25.05
2018-06-10T08:41:09.469Z,25.08
2018-06-10T08:42:09.462Z,25.07
2018-06-10T08:43:09.460Z,25.08
2018-06-10T08:44:09.496Z,25.09
2018-06-10T08:45:09.367Z,25.05
2018-06-10T08:46:09.349Z,25.12
2018-06-10T08:47:09.311Z,25.11
2018-06-10T08:48:09.289Z,25.22
2018-06-10T08:49:09.277Z,25.09
2018-06-10T08:50:09.258Z,25.08
2018-06-10T08:51:09.204Z,25.09
2018-06-10T08:52:09.193Z,25.07
2018-06-10T08:53:09.170Z,25.17
2018-06-10T08:54:09.224Z,25.11
2018-06-10T08:55:09.120Z,25.11
2018-06-10T08:56:09.081Z,25.07
2018-06-10T08:57:09.056Z,25.12
2018-06-10T08:58:09.033Z,25.07
2018-06-10T08:59:09.111Z,25.08
2018-06-10T09:00:08.984Z,25.02
2018-06-10T09:01:08.952Z,24.97
2018-06-10T09:02:08.955Z,24.93
2018-06-10T09:03:08.885Z,24.97
2018-06-10T09:04:08.993Z,24.94
2018-06-10T09:05:08.842Z,24.89
2018-06-10T09:06:08.817Z,24.92
2018-06-10T09:07:08.804Z,24.78
2018-06-10T09:08:08.762Z,24.78
2018-06-10T09:09:08.896Z,24.80
2018-06-10T09:10:08.708Z,24.71
2018-06-10T09:11:08.678Z,24.74
2018-06-10T09:12:08.674Z,24.77
2018-06-10T09:13:08.627Z,24.77
2018-06-10T09:14:08.705Z,24.71
2018-06-10T09:15:08.588Z,24.69
2018-06-10T09:16:08.572Z,24.61
2018-06-10T09:17:08.518Z,24.70
2018-06-10T09:18:08.500Z,24.64
2018-06-10T09:19:08.492Z,24.67
2018-06-10T09:20:08.494Z,24.64
2018-06-10T09:21:08.454Z,24.69
2018-06-10T09:22:08.394Z,24.59
2018-06-10T09:23:08.384Z,24.70
2018-06-10T09:24:08.346Z,24.70
2018-06-10T09:25:08.310Z,24.70
2018-06-10T09:26:08.297Z,24.70
2018-06-10T09:27:08.269Z,24.75
2018-06-10T09:28:08.243Z,24.61
2018-06-10T09:29:08.208Z,24.66
2018-06-10T09:30:08.182Z,24.63
2018-06-10T09:31:08.203Z,24.70
2018-06-10T09:32:08.123Z,24.64
2018-06-10T09:33:08.111Z,24.70
2018-06-10T09:34:08.094Z,24.63
2018-06-10T09:35:08.043Z,24.64
2018-06-10T09:36:08.124Z,24.59
2018-06-10T09:37:07.993Z,24.64
2018-06-10T09:38:07.990Z,24.66
2018-06-10T09:39:07.933Z,24.58
2018-06-10T09:40:07.920Z,24.61
2018-06-10T09:41:07.994Z,24.58
2018-06-10T09:42:07.906Z,24.59
2018-06-10T09:43:07.834Z,24.59
2018-06-10T09:44:07.812Z,24.64
2018-06-10T09:45:07.790Z,24.63
2018-06-10T09:46:07.873Z,24.67
2018-06-10T09:47:07.732Z,24.66
2018-06-10T09:48:07.706Z,24.66
2018-06-10T09:49:07.676Z,24.75
2018-06-10T09:50:07.646Z,24.69
2018-06-10T09:51:07.682Z,24.77
2018-06-10T09:52:07.703Z,24.67
2018-06-10T09:53:07.591Z,24.61
2018-06-10T09:54:07.571Z,24.61
2018-06-10T09:55:07.599Z,24.70
2018-06-10T10:06:53.475Z,24.61
2018-06-10T10:07:53.406Z,24.64
2018-06-10T10:08:53.497Z,24.56
2018-06-10T10:09:53.339Z,24.58
2018-06-10T10:10:53.302Z,24.61
2018-06-10T10:11:53.305Z,24.61
2018-06-10T10:12:53.296Z,24.59
2018-06-10T10:13:53.213Z,24.66
2018-06-10T10:14:53.283Z,24.64
2018-06-10T10:15:53.164Z,24.66
2018-06-10T10:16:53.133Z,24.70
2018-06-10T10:17:53.135Z,24.69
2018-06-10T10:18:53.089Z,24.63
2018-06-10T10:19:53.136Z,24.66
2018-06-10T10:20:53.023Z,24.59
2018-06-10T10:21:52.995Z,24.63
2018-06-10T10:22:52.989Z,24.69
2018-06-10T10:23:52.945Z,24.64
2018-06-10T10:24:53.019Z,24.63
2018-06-10T10:25:52.884Z,24.63
2018-06-10T10:26:52.872Z,24.59
2018-06-10T10:27:52.845Z,24.61
2018-06-10T10:28:52.805Z,24.61
2018-06-10T10:29:52.793Z,24.56
2018-06-10T10:30:52.807Z,24.64
2018-06-10T10:31:52.745Z,24.56
2018-06-10T10:32:52.702Z,24.67
2018-06-10T10:33:52.695Z,24.59
2018-06-10T10:34:52.675Z,24.67
2018-06-10T10:35:52.631Z,24.55
2018-06-10T10:36:52.604Z,24.56
2018-06-10T10:37:52.582Z,24.64
2018-06-10T10:38:52.538Z,24.55
2018-06-10T10:39:52.520Z,24.66
2018-06-10T10:40:52.556Z,24.59
2018-06-10T10:41:52.466Z,24.52
2018-06-10T10:42:52.447Z,24.52
2018-06-10T10:43:52.423Z,24.61
2018-06-10T10:44:52.413Z,24.64
2018-06-10T10:45:52.466Z,24.54
2018-06-10T10:46:52.362Z,24.54
2018-06-10T10:47:52.316Z,24.52
2018-06-10T10:48:52.340Z,24.52
2018-06-10T10:49:52.251Z,24.51
2018-06-10T10:50:52.236Z,24.55
2018-06-10T10:51:52.191Z,24.45
2018-06-10T10:52:52.179Z,24.54
2018-06-10T10:53:52.157Z,24.45
2018-06-10T10:54:52.118Z,24.58
2018-06-10T10:55:52.111Z,24.67
2018-06-10T10:56:52.118Z,24.67
2018-06-10T10:57:52.032Z,24.55
2018-06-10T10:58:52.019Z,24.64
2018-06-10T10:59:52.001Z,24.64
2018-06-10T11:00:51.961Z,24.55
2018-06-10T11:01:52.037Z,24.58
2018-06-10T11:02:51.907Z,24.59
2018-06-10T11:03:51.893Z,24.61
2018-06-10T11:04:51.859Z,24.66
2018-06-10T11:05:51.825Z,24.61
2018-06-10T11:06:51.795Z,24.67
2018-06-10T11:07:51.774Z,24.59
2018-06-10T11:08:51.761Z,24.59
2018-06-10T11:09:51.732Z,24.59
2018-06-10T11:10:51.741Z,24.56
2018-06-10T11:11:51.665Z,24.52
2018-06-10T11:12:51.636Z,24.55
2018-06-10T11:13:51.621Z,24.66
2018-06-10T11:14:51.662Z,24.54
2018-06-10T11:15:51.572Z,24.58
2018-06-10T11:16:51.552Z,24.54
2018-06-10T11:17:51.604Z,24.64
2018-06-10T11:18:51.489Z,24.51
2018-06-10T11:19:51.467Z,24.49
2018-06-10T11:20:51.434Z,24.55
2018-06-10T11:21:51.415Z,24.55
2018-06-10T11:22:51.384Z,24.46
2018-06-10T11:23:51.355Z,24.51
2018-06-10T11:24:51.351Z,24.55
2018-06-10T11:25:51.304Z,24.49
2018-06-10T11:26:51.276Z,24.51
2018-06-10T11:27:51.256Z,24.49
2018-06-10T11:28:51.216Z,24.52
2018-06-10T11:29:51.195Z,24.49
2018-06-10T11:30:51.188Z,24.49
2018-06-10T11:31:51.167Z,24.55
2018-06-10T11:32:51.101Z,24.55
2018-06-10T11:33:51.168Z,24.54
2018-06-10T11:34:51.068Z,24.45
2018-06-10T11:35:51.043Z,24.48
2018-06-10T11:36:51.013Z,24.61
2018-06-10T11:37:50.999Z,24.51
2018-06-10T11:38:51.043Z,24.52
2018-06-10T11:39:50.949Z,24.49
2018-06-10T11:40:50.910Z,24.67
2018-06-10T11:41:50.864Z,24.52
2018-06-10T11:42:50.870Z,24.66
2018-06-10T11:43:50.823Z,24.56
2018-06-10T11:44:50.812Z,24.66
2018-06-10T11:45:50.776Z,24.58
2018-06-10T11:46:50.735Z,24.56
2018-06-10T11:47:50.713Z,24.69
2018-06-10T11:48:50.695Z,24.66
2018-06-10T11:49:50.709Z,24.61
2018-06-10T11:50:50.630Z,24.66
2018-06-10T11:51:50.624Z,24.66
2018-06-10T11:52:50.576Z,24.64
2018-06-10T11:53:50.563Z,24.64
2018-06-10T11:54:50.582Z,24.69
2018-06-10T11:55:50.553Z,24.69
2018-06-10T11:56:50.500Z,24.64
2018-06-10T11:57:50.488Z,24.64
2018-06-10T11:58:50.431Z,24.66
2018-06-10T11:59:50.403Z,24.64
2018-06-10T12:00:50.374Z,24.58
2018-06-10T12:01:50.361Z,24.58
2018-06-10T12:02:50.316Z,24.63
2018-06-10T12:03:50.304Z,24.61
2018-06-10T12:04:50.263Z,24.64
2018-06-10T12:05:50.238Z,24.69
2018-06-10T12:06:50.225Z,24.69
2018-06-10T12:07:50.204Z,24.71
2018-06-10T12:08:50.165Z,24.74
2018-06-10T12:09:50.135Z,24.78
2018-06-10T12:10:50.237Z,24.77
2018-06-10T12:11:50.086Z,24.75
2018-06-10T12:12:50.069Z,24.80
2018-06-10T12:13:50.080Z,24.75
2018-06-10T12:14:50.001Z,24.90
2018-06-10T12:15:49.982Z,24.93
2018-06-10T12:16:49.947Z,24.97
2018-06-10T12:17:49.911Z,24.89
2018-06-10T12:18:49.882Z,24.97
2018-06-10T12:19:49.887Z,24.87
2018-06-10T12:20:49.834Z,24.93
2018-06-10T12:21:49.824Z,25.00
2018-06-10T12:22:49.904Z,24.94
2018-06-10T12:23:49.776Z,24.94
2018-06-10T12:24:49.809Z,24.90
2018-06-10T12:25:49.739Z,24.96
2018-06-10T12:26:49.789Z,24.89
2018-06-10T12:27:49.649Z,25.02
2018-06-10T12:28:49.641Z,25.02
2018-06-10T12:29:49.611Z,25.08
2018-06-10T12:30:49.587Z,25.08
2018-06-10T12:31:49.652Z,25.07
2018-06-10T12:32:49.525Z,25.11
2018-06-10T12:33:49.492Z,25.12
2018-06-10T12:34:49.472Z,25.14
2018-06-10T12:35:49.462Z,25.19
2018-06-10T12:36:49.412Z,25.26
2018-06-10T12:37:49.393Z,25.22
2018-06-10T12:38:49.372Z,25.32
2018-06-10T12:39:49.360Z,25.27
2018-06-10T12:40:49.328Z,25.30
2018-06-10T12:41:49.292Z,25.37
2018-06-10T12:42:49.257Z,25.41
2018-06-10T12:43:49.244Z,25.38
2018-06-10T12:44:49.265Z,25.44
2018-06-10T12:45:49.198Z,25.45
2018-06-10T12:46:49.174Z,25.39
2018-06-10T12:47:49.240Z,25.37
2018-06-10T12:48:49.124Z,25.47
2018-06-10T12:49:49.090Z,25.47
2018-06-10T12:50:49.045Z,25.52
2018-06-10T12:51:49.157Z,25.51
2018-06-10T12:52:49.057Z,25.54
2018-06-10T12:53:48.966Z,25.51
2018-06-10T12:54:48.947Z,25.52
2018-06-10T12:55:48.966Z,25.54
2018-06-10T12:56:48.902Z,25.66
2018-06-10T12:57:48.888Z,25.71
2018-06-10T12:58:48.955Z,25.81
2018-06-10T12:59:48.812Z,25.79
2018-06-10T13:00:48.781Z,25.82
2018-06-10T13:01:48.764Z,25.88
2018-06-10T13:02:48.734Z,25.91
2018-06-10T13:03:48.770Z,25.94